createdAt,value
2018-12-16T00:01:35.540Z,58.47
2018-12-16T00:04:04.905Z,58.67
2018-12-16T00:06:34.173Z,60.77
2018-12-16T00:09:04.919Z,65.33
2018-12-16T00:11:33.993Z,58.47
2018-12-16T00:14:03.174Z,57.47
2018-12-16T00:16:32.342Z,62.63
2018-12-16T00:19:01.404Z,58.97
2018-12-16T00:21:30.686Z,69.53
2018-12-16T00:23:59.724Z,64.60
2018-12-16T00:26:40.667Z,63.57
2018-12-16T00:29:09.914Z,60.47
2018-12-16T00:31:42.456Z,58.83
2018-12-16T00:34:11.534Z,59.87
2018-12-16T00:36:40.749Z,66.57
2018-12-16T00:39:09.814Z,67.23
2018-12-16T00:41:38.854Z,63.43
2018-12-16T00:44:08.153Z,70.27
2018-12-16T00:46:37.293Z,63.37
2018-12-16T00:49:06.479Z,65.83
2018-12-16T00:51:35.537Z,70.83
2018-12-16T00:54:04.696Z,64.33
2018-12-16T00:56:33.903Z,63.90
2018-12-16T00:59:03.102Z,64.63
2018-12-16T01:01:32.565Z,68.83
2018-12-16T01:04:01.595Z,63.97
2018-12-16T01:06:30.825Z,63.63
2018-12-16T01:08:59.970Z,60.83
2018-12-16T01:11:29.291Z,59.50
2018-12-16T01:13:58.364Z,63.57
2018-12-16T01:16:27.401Z,61.57
2018-12-16T01:18:56.459Z,62.07
2018-12-16T01:21:26.283Z,61.23
2018-12-16T01:23:55.344Z,62.17
2018-12-16T01:26:24.633Z,62.80
2018-12-16T01:28:53.740Z,60.47
2018-12-16T01:31:23.754Z,67.07
2018-12-16T01:33:53.184Z,67.00
2018-12-16T01:36:23.028Z,63.63
2018-12-16T01:38:52.363Z,59.97
2018-12-16T01:41:21.436Z,68.50
2018-12-16T01:43:50.469Z,66.17
2018-12-16T01:46:19.744Z,65.13
2018-12-16T01:48:49.054Z,61.63
2018-12-16T01:51:18.150Z,62.17
2018-12-16T01:53:47.379Z,57.07
2018-12-16T01:56:16.413Z,56.03
2018-12-16T01:58:45.488Z,62.87
2018-12-16T02:01:14.624Z,59.83
2018-12-16T02:03:43.923Z,57.97
2018-12-16T02:06:12.992Z,58.30
2018-12-16T02:08:42.128Z,65.47
2018-12-16T02:11:11.212Z,63.93
2018-12-16T02:13:40.413Z,61.70
2018-12-16T02:16:09.454Z,60.50
2018-12-16T02:18:38.526Z,63.00
2018-12-16T02:21:07.845Z,60.37
2018-12-16T02:23:37.111Z,56.67
2018-12-16T02:26:06.159Z,59.97
2018-12-16T02:28:35.211Z,58.83
2018-12-16T02:31:04.334Z,56.57
2018-12-16T02:33:34.021Z,56.17
2018-12-16T02:36:03.090Z,56.57
2018-12-16T02:38:32.467Z,54.77
2018-12-16T02:41:01.502Z,57.17
2018-12-16T02:43:30.597Z,53.27
2018-12-16T02:45:59.747Z,55.07
2018-12-16T02:48:28.949Z,55.70
2018-12-16T02:50:58.105Z,58.80
2018-12-16T02:53:27.174Z,54.53
2018-12-16T02:55:56.792Z,49.43
2018-12-16T02:58:25.832Z,56.37
2018-12-16T03:00:55.640Z,55.33
2018-12-16T03:03:24.899Z,54.20
2018-12-16T03:05:54.100Z,56.07
2018-12-16T03:08:29.937Z,54.80
2018-12-16T03:10:58.965Z,56.10
2018-12-16T03:13:28.008Z,52.47
2018-12-16T03:15:57.376Z,51.47
2018-12-16T03:18:26.421Z,51.63
2018-12-16T03:20:55.557Z,52.73
2018-12-16T03:23:24.608Z,48.83
2018-12-16T03:25:53.740Z,48.33
2018-12-16T03:28:23.374Z,46.47
2018-12-16T03:30:53.087Z,48.27
2018-12-16T03:33:22.162Z,53.03
2018-12-16T03:35:51.218Z,50.23
2018-12-16T03:38:21.057Z,52.27
2018-12-16T03:40:50.098Z,51.07
2018-12-16T03:43:19.390Z,51.93
2018-12-16T03:45:49.005Z,51.47
2018-12-16T03:48:18.038Z,53.60
2018-12-16T03:50:47.122Z,50.73
2018-12-16T03:53:19.856Z,46.53
2018-12-16T03:55:47.368Z,53.97
2018-12-16T03:58:16.527Z,51.43
2018-12-16T04:00:45.593Z,52.10
2018-12-16T04:03:14.734Z,56.10
2018-12-16T04:05:44.429Z,57.07
2018-12-16T04:08:13.473Z,48.80
2018-12-16T04:10:42.716Z,55.27
2018-12-16T04:13:11.904Z,57.23
2018-12-16T04:15:41.032Z,51.50
2018-12-16T04:18:10.074Z,47.63
2018-12-16T04:20:39.959Z,48.70
2018-12-16T04:23:09.051Z,46.77
2018-12-16T04:25:38.087Z,45.03
2018-12-16T04:28:09.379Z,48.93
2018-12-16T04:30:38.676Z,42.33
2018-12-16T04:33:07.725Z,38.67
2018-12-16T04:35:36.776Z,40.97
2018-12-16T04:38:05.816Z,41.83
2018-12-16T04:40:34.953Z,36.83
2018-12-16T04:43:03.990Z,37.97
2018-12-16T04:45:33.761Z,38.03
2018-12-16T04:48:03.109Z,37.77
2018-12-16T04:50:32.283Z,37.73
2018-12-16T04:53:02.197Z,35.50
2018-12-16T04:55:31.319Z,36.40
2018-12-16T04:58:00.370Z,31.47
2018-12-16T05:00:29.452Z,34.10
2018-12-16T05:02:58.497Z,30.20
2018-12-16T05:05:27.553Z,30.13
2018-12-16T05:07:56.711Z,31.17
2018-12-16T05:10:28.930Z,30.93
2018-12-16T05:12:58.270Z,30.83
2018-12-16T05:15:27.423Z,31.47
2018-12-16T05:17:56.516Z,28.67
2018-12-16T05:20:25.649Z,30.20
2018-12-16T05:22:54.776Z,31.93
2018-12-16T05:25:24.333Z,28.10
2018-12-16T05:27:53.549Z,29.17
2018-12-16T05:30:22.894Z,34.37
2018-12-16T05:32:51.957Z,34.13
2018-12-16T05:35:21.012Z,31.27
2018-12-16T05:37:50.064Z,31.53
2018-12-16T05:40:19.098Z,31.17
2018-12-16T05:42:48.185Z,31.20
2018-12-16T05:45:17.397Z,32.73
2018-12-16T05:47:46.538Z,30.93
2018-12-16T05:50:16.512Z,36.00
2018-12-16T05:52:45.565Z,36.20
2018-12-16T05:55:14.613Z,35.60
2018-12-16T05:57:43.979Z,33.10
2018-12-16T06:00:13.131Z,37.47
2018-12-16T06:02:42.158Z,36.30
2018-12-16T06:05:11.275Z,38.47
2018-12-16T06:07:40.406Z,38.43
2018-12-16T06:10:09.916Z,37.67
2018-12-16T06:12:38.973Z,34.80
2018-12-16T06:15:08.350Z,40.07
2018-12-16T06:17:37.383Z,39.90
2018-12-16T06:20:06.622Z,42.70
2018-12-16T06:22:35.670Z,40.93
2018-12-16T06:25:05.105Z,38.20
2018-12-16T06:27:34.293Z,41.83
2018-12-16T06:30:04.046Z,44.30
2018-12-16T06:32:33.130Z,40.00
2018-12-16T06:35:02.181Z,44.67
2018-12-16T06:37:31.215Z,39.70
2018-12-16T06:40:00.555Z,41.90
2018-12-16T06:42:30.066Z,46.53
2018-12-16T06:44:59.200Z,44.17
2018-12-16T06:47:28.695Z,46.43
2018-12-16T06:49:57.928Z,50.90
2018-12-16T06:52:27.118Z,45.70
2018-12-16T06:54:56.358Z,49.20
2018-12-16T06:57:25.407Z,54.07
2018-12-16T06:59:54.644Z,52.43
2018-12-16T07:02:23.736Z,49.63
2018-12-16T07:04:52.991Z,53.13
2018-12-16T07:07:22.297Z,60.07
2018-12-16T07:09:51.367Z,46.57
2018-12-16T07:12:21.031Z,75.27
2018-12-16T07:14:50.133Z,63.13
2018-12-16T07:17:19.414Z,41.77
2018-12-16T07:19:48.719Z,37.03
2018-12-16T07:22:17.821Z,39.03
2018-12-16T07:24:47.846Z,40.23
2018-12-16T07:27:16.912Z,43.37
2018-12-16T07:29:46.144Z,40.43
2018-12-16T07:32:15.624Z,41.33
2018-12-16T07:34:44.913Z,45.93
2018-12-16T07:37:18.933Z,47.27
2018-12-16T07:39:46.258Z,45.17
2018-12-16T07:42:16.070Z,51.07
2018-12-16T07:44:45.132Z,50.87
2018-12-16T07:47:14.261Z,49.30
2018-12-16T07:49:46.376Z,48.13
2018-12-16T07:52:15.666Z,51.77
2018-12-16T07:55:03.049Z,50.77
2018-12-16T07:57:32.453Z,53.33
2018-12-16T08:00:01.543Z,52.23
2018-12-16T08:02:31.418Z,57.33
2018-12-16T08:05:00.632Z,59.00
2018-12-16T08:07:29.920Z,55.37
2018-12-16T08:09:59.197Z,53.63
2018-12-16T08:12:28.373Z,52.37
2018-12-16T08:14:57.432Z,51.90
2018-12-16T08:17:26.486Z,44.53
2018-12-16T08:19:55.690Z,51.07
2018-12-16T08:22:24.755Z,48.37
2018-12-16T08:24:53.940Z,44.70
2018-12-16T08:27:23.049Z,50.10
2018-12-16T08:29:52.602Z,46.33
2018-12-16T08:32:21.734Z,48.63
2018-12-16T08:34:51.101Z,53.83
2018-12-16T08:37:20.217Z,46.30
2018-12-16T08:39:49.709Z,47.17
2018-12-16T08:42:18.776Z,44.47
2018-12-16T08:44:48.210Z,43.67
2018-12-16T08:47:17.419Z,42.40
2018-12-16T08:49:46.628Z,44.23
2018-12-16T08:52:16.257Z,43.20
2018-12-16T08:54:45.954Z,38.40
2018-12-16T08:57:15.199Z,39.80
2018-12-16T08:59:44.714Z,42.77
2018-12-16T09:02:14.180Z,39.27
2018-12-16T09:04:43.705Z,41.80
2018-12-16T09:07:12.903Z,43.50
2018-12-16T09:09:42.438Z,38.60
2018-12-16T09:12:11.688Z,49.33
2018-12-16T09:14:41.161Z,37.90
2018-12-16T09:17:10.403Z,40.17
2018-12-16T09:19:39.790Z,38.17
2018-12-16T09:22:09.463Z,34.13
2018-12-16T09:24:38.689Z,34.00
2018-12-16T09:27:07.884Z,35.40
2018-12-16T09:29:37.316Z,34.97
2018-12-16T09:32:06.131Z,32.57
2018-12-16T09:34:35.231Z,31.10
2018-12-16T09:37:04.466Z,30.67
2018-12-16T09:39:33.808Z,29.47
2018-12-16T09:42:02.992Z,28.90
2018-12-16T09:44:32.069Z,27.80
2018-12-16T09:47:01.449Z,25.83
2018-12-16T09:49:30.612Z,28.60
2018-12-16T09:52:00.356Z,28.80
2018-12-16T09:54:29.497Z,27.60
2018-12-16T09:56:58.687Z,23.60
2018-12-16T09:59:27.829Z,24.13
2018-12-16T10:01:57.774Z,21.27
2018-12-16T10:04:26.894Z,21.97
2018-12-16T10:06:56.273Z,25.53
2018-12-16T10:09:25.392Z,22.47
2018-12-16T10:11:54.687Z,23.80
2018-12-16T10:14:23.769Z,23.67
2018-12-16T10:16:52.808Z,22.90
2018-12-16T10:19:21.995Z,23.57
2018-12-16T10:21:51.169Z,27.37
2018-12-16T10:24:20.298Z,23.10
2018-12-16T10:26:50.195Z,21.63
2018-12-16T10:29:19.248Z,23.80
2018-12-16T10:31:48.323Z,22.00
2018-12-16T10:34:17.543Z,22.70
2018-12-16T10:36:46.584Z,23.30
2018-12-16T10:39:15.771Z,20.40
2018-12-16T10:41:44.830Z,21.07
2018-12-16T10:44:13.865Z,18.10
2018-12-16T10:46:42.945Z,20.37
2018-12-16T10:49:12.176Z,18.57
2018-12-16T10:51:41.259Z,19.17
2018-12-16T10:54:13.218Z,17.20
2018-12-16T10:56:42.383Z,21.97
2018-12-16T10:59:11.476Z,19.97
2018-12-16T11:01:41.364Z,21.00
2018-12-16T11:04:10.996Z,20.20
2018-12-16T11:06:40.145Z,19.47
2018-12-16T11:09:09.355Z,16.70
2018-12-16T11:11:38.451Z,17.73
2018-12-16T11:14:07.623Z,18.57
2018-12-16T11:16:36.754Z,20.33
2018-12-16T11:19:05.990Z,24.10
2018-12-16T11:21:35.156Z,21.93
2018-12-16T11:24:04.560Z,31.70
2018-12-16T11:26:33.675Z,27.50
2018-12-16T11:29:02.757Z,21.07
2018-12-16T11:31:31.982Z,26.50
2018-12-16T11:34:01.461Z,25.77
2018-12-16T11:36:30.956Z,30.67
2018-12-16T11:39:00.016Z,26.17
2018-12-16T11:41:29.321Z,22.10
2018-12-16T11:43:58.576Z,23.90
2018-12-16T11:46:27.705Z,22.87
2018-12-16T11:48:56.962Z,25.33
2018-12-16T11:51:26.269Z,21.37
2018-12-16T11:53:55.379Z,27.33
2018-12-16T11:56:25.565Z,23.93
2018-12-16T11:58:54.851Z,21.63
2018-12-16T12:01:23.961Z,23.33
2018-12-16T12:03:53.250Z,27.23
2018-12-16T12:06:22.561Z,23.13
2018-12-16T12:08:51.723Z,24.57
2018-12-16T12:11:20.948Z,21.07
2018-12-16T12:13:50.394Z,22.53
2018-12-16T12:16:19.682Z,23.73
2018-12-16T12:19:00.695Z,21.20
2018-12-16T12:21:29.995Z,18.87
2018-12-16T12:23:59.099Z,20.43
2018-12-16T12:26:28.253Z,20.53
2018-12-16T12:28:57.925Z,20.30
2018-12-16T12:31:27.826Z,19.13
2018-12-16T12:33:56.910Z,20.83
2018-12-16T12:36:26.334Z,19.93
2018-12-16T12:38:55.498Z,22.07
2018-12-16T12:41:24.817Z,19.17
2018-12-16T12:43:53.909Z,22.23
2018-12-16T12:46:23.213Z,22.23
2018-12-16T12:48:52.326Z,20.37
2018-12-16T12:51:21.662Z,19.50
2018-12-16T12:53:50.755Z,20.70
2018-12-16T12:56:20.057Z,21.13
2018-12-16T12:58:49.391Z,20.70
2018-12-16T13:01:19.346Z,21.13
2018-12-16T13:03:48.640Z,21.67
2018-12-16T13:06:17.879Z,21.90
2018-12-16T13:08:47.001Z,22.40
2018-12-16T13:11:16.333Z,23.90
2018-12-16T13:13:45.497Z,22.73
2018-12-16T13:16:14.670Z,22.30
2018-12-16T13:18:43.775Z,22.13
2018-12-16T13:21:12.833Z,21.93
2018-12-16T13:23:41.919Z,23.83
2018-12-16T13:26:10.993Z,24.67
2018-12-16T13:28:40.085Z,21.40
2018-12-16T13:31:09.957Z,23.33
2018-12-16T13:33:39.033Z,25.93
2018-12-16T13:36:10.917Z,25.20
2018-12-16T13:38:40.307Z,28.20
2018-12-16T13:41:10.238Z,27.33
2018-12-16T13:43:39.475Z,24.50
2018-12-16T13:46:08.699Z,27.27
2018-12-16T13:48:37.847Z,27.33
2018-12-16T13:51:07.141Z,31.97
2018-12-16T13:53:36.239Z,30.23
2018-12-16T13:56:05.677Z,29.80
2018-12-16T13:58:35.804Z,26.83
2018-12-16T14:01:04.973Z,30.37
2018-12-16T14:03:34.068Z,26.80
2018-12-16T14:06:03.166Z,29.33
2018-12-16T14:08:32.301Z,27.77
2018-12-16T14:11:01.726Z,26.77
2018-12-16T14:13:30.838Z,35.20
2018-12-16T14:16:00.145Z,25.17
2018-12-16T14:18:29.332Z,25.63
2018-12-16T14:20:58.538Z,28.27
2018-12-16T14:23:27.726Z,29.90
2018-12-16T14:25:56.938Z,26.73
2018-12-16T14:28:26.642Z,26.47
2018-12-16T14:30:55.754Z,24.93
2018-12-16T14:33:24.928Z,24.13
2018-12-16T14:35:54.032Z,24.20
2018-12-16T14:38:23.816Z,21.17
2018-12-16T14:40:53.304Z,22.27
2018-12-16T14:43:22.902Z,22.77
2018-12-16T14:45:52.241Z,22.43
2018-12-16T14:48:21.564Z,23.40
2018-12-16T14:50:50.815Z,22.93
2018-12-16T14:53:19.957Z,21.27
2018-12-16T14:55:54.995Z,20.97
2018-12-16T14:58:20.188Z,20.73
2018-12-16T15:00:49.474Z,21.40
2018-12-16T15:03:18.562Z,23.10
2018-12-16T15:05:47.658Z,21.47
2018-12-16T15:08:16.847Z,21.80
2018-12-16T15:10:46.179Z,20.33
2018-12-16T15:13:15.513Z,21.47
2018-12-16T15:15:45.781Z,20.67
2018-12-16T15:18:15.024Z,22.93
2018-12-16T15:20:44.112Z,21.33
2018-12-16T15:23:13.257Z,20.27
2018-12-16T15:25:42.502Z,19.43
2018-12-16T15:28:11.709Z,21.03
2018-12-16T15:30:41.424Z,20.20
2018-12-16T15:33:10.584Z,22.07
2018-12-16T15:35:39.801Z,17.83
2018-12-16T15:38:08.905Z,22.30
2018-12-16T15:40:38.125Z,21.77
2018-12-16T15:43:07.365Z,37.87
2018-12-16T15:45:36.659Z,23.17
2018-12-16T15:48:05.732Z,18.67
2018-12-16T15:50:35.098Z,21.83
2018-12-16T15:53:04.199Z,22.07
2018-12-16T15:55:33.461Z,21.00
2018-12-16T15:58:02.654Z,22.00
2018-12-16T16:00:31.993Z,23.57
2018-12-16T16:03:01.394Z,22.10
2018-12-16T16:05:30.758Z,23.77
2018-12-16T16:07:59.924Z,20.97
2018-12-16T16:10:29.287Z,22.73
2018-12-16T16:12:58.459Z,24.93
2018-12-16T16:15:27.816Z,26.80
2018-12-16T16:17:56.907Z,24.23
2018-12-16T16:20:26.061Z,23.00
2018-12-16T16:22:55.561Z,23.13
2018-12-16T16:25:24.693Z,21.20
2018-12-16T16:27:53.756Z,26.13
2018-12-16T16:30:22.964Z,22.77
2018-12-16T16:32:52.107Z,23.17
2018-12-16T16:35:21.852Z,22.13
2018-12-16T16:37:50.951Z,22.03
2018-12-16T16:40:20.106Z,22.30
2018-12-16T16:42:49.418Z,21.20
2018-12-16T16:45:18.684Z,25.80
2018-12-16T16:47:47.828Z,26.17
2018-12-16T16:50:17.141Z,23.37
2018-12-16T16:52:46.373Z,25.63
2018-12-16T16:55:15.514Z,26.40
2018-12-16T16:57:45.369Z,23.00
2018-12-16T17:00:14.711Z,24.30
2018-12-16T17:02:44.059Z,25.90
2018-12-16T17:05:13.485Z,26.17
2018-12-16T17:07:44.139Z,25.97
2018-12-16T17:10:13.436Z,24.67
2018-12-16T17:12:42.712Z,25.50
2018-12-16T17:15:11.906Z,26.77
2018-12-16T17:17:41.192Z,24.27
2018-12-16T17:20:10.383Z,23.97
2018-12-16T17:22:39.471Z,26.80
2018-12-16T17:25:08.860Z,23.70
2018-12-16T17:27:37.939Z,24.80
2018-12-16T17:30:09.199Z,27.63
2018-12-16T17:32:38.449Z,24.17
2018-12-16T17:35:07.865Z,26.20
2018-12-16T17:37:37.170Z,24.17
2018-12-16T17:40:06.759Z,25.27
2018-12-16T17:42:35.843Z,24.80
2018-12-16T17:45:05.776Z,25.17
2018-12-16T17:47:35.191Z,25.23
2018-12-16T17:50:04.882Z,27.30
2018-12-16T17:52:34.087Z,30.73
2018-12-16T17:55:03.442Z,33.43
2018-12-16T17:57:32.656Z,39.33
2018-12-16T18:00:01.763Z,30.40
2018-12-16T18:02:31.058Z,31.30
2018-12-16T18:05:00.200Z,29.23
2018-12-16T18:07:29.316Z,35.40
2018-12-16T18:09:58.377Z,30.30
2018-12-16T18:12:27.502Z,32.67
2018-12-16T18:14:56.638Z,30.93
2018-12-16T18:17:25.982Z,28.50
2018-12-16T18:19:55.356Z,31.27
2018-12-16T18:22:24.444Z,32.33
2018-12-16T18:24:53.799Z,38.77
2018-12-16T18:27:22.867Z,35.67
2018-12-16T18:29:51.944Z,37.57
2018-12-16T18:32:21.036Z,32.50
2018-12-16T18:34:50.112Z,38.43
2018-12-16T18:37:19.186Z,41.97
2018-12-16T18:39:48.478Z,41.97
2018-12-16T18:42:17.602Z,38.33
2018-12-16T18:44:46.955Z,44.53
2018-12-16T18:47:16.028Z,46.03
2018-12-16T18:49:45.893Z,46.33
2018-12-16T18:52:14.998Z,46.60
2018-12-16T18:54:44.165Z,42.00
2018-12-16T18:57:13.271Z,48.47
2018-12-16T18:59:42.729Z,38.90
2018-12-16T19:02:12.157Z,45.03
2018-12-16T19:04:41.185Z,39.27
2018-12-16T19:07:10.379Z,44.63
2018-12-16T19:09:40.146Z,49.10
2018-12-16T19:12:09.444Z,42.77
2018-12-16T19:14:38.923Z,48.13
2018-12-16T19:17:08.101Z,39.00
2018-12-16T19:19:37.362Z,36.33
2018-12-16T19:22:06.508Z,35.87
2018-12-16T19:24:35.592Z,39.90
2018-12-16T19:27:04.694Z,33.90
2018-12-16T19:29:33.855Z,31.17
2018-12-16T19:32:02.924Z,30.67
2018-12-16T19:34:32.061Z,28.83
2018-12-16T19:37:01.212Z,31.10
2018-12-16T19:39:31.092Z,32.17
2018-12-16T19:42:00.326Z,34.03
2018-12-16T19:44:29.511Z,33.83
2018-12-16T19:46:58.637Z,31.73
2018-12-16T19:49:27.695Z,30.83
2018-12-16T19:51:56.943Z,33.07
2018-12-16T19:54:26.418Z,38.13
2018-12-16T19:56:55.998Z,30.50
2018-12-16T19:59:25.241Z,31.50
2018-12-16T20:01:54.307Z,27.97
2018-12-16T20:04:25.411Z,25.17
2018-12-16T20:06:54.578Z,27.73
2018-12-16T20:09:23.684Z,27.03
2018-12-16T20:11:52.937Z,29.50
2018-12-16T20:14:22.149Z,26.80
2018-12-16T20:16:52.003Z,33.07
2018-12-16T20:19:21.132Z,29.70
2018-12-16T20:21:50.898Z,28.97
2018-12-16T20:24:19.979Z,27.57
2018-12-16T20:26:49.299Z,32.87
2018-12-16T20:29:18.581Z,30.03
2018-12-16T20:31:47.739Z,28.90
2018-12-16T20:34:17.031Z,30.53
2018-12-16T20:36:46.411Z,36.03
2018-12-16T20:39:15.828Z,32.57
2018-12-16T20:41:44.908Z,28.83
2018-12-16T20:44:14.384Z,32.63
2018-12-16T20:46:44.377Z,31.93
2018-12-16T20:49:14.142Z,33.23
2018-12-16T20:51:43.232Z,26.40
2018-12-16T20:54:12.451Z,29.67
2018-12-16T20:56:41.515Z,27.07
2018-12-16T20:59:11.046Z,30.30
2018-12-16T21:01:40.434Z,27.70
2018-12-16T21:04:09.514Z,30.00
2018-12-16T21:06:38.684Z,26.87
2018-12-16T21:09:08.857Z,25.47
2018-12-16T21:11:43.131Z,23.57
2018-12-16T21:14:17.629Z,26.87
2018-12-16T21:16:52.077Z,22.67
2018-12-16T21:19:21.501Z,24.20
2018-12-16T21:21:50.595Z,25.03
2018-12-16T21:24:20.090Z,25.53
2018-12-16T21:26:50.114Z,22.13
2018-12-16T21:29:19.213Z,23.70
2018-12-16T21:31:48.393Z,22.53
2018-12-16T21:34:17.450Z,23.27
2018-12-16T21:36:46.591Z,20.43
2018-12-16T21:39:15.864Z,22.17
2018-12-16T21:41:45.317Z,20.40
2018-12-16T21:44:14.393Z,22.57
2018-12-16T21:46:44.539Z,19.03
2018-12-16T21:49:13.698Z,20.93
2018-12-16T21:51:42.749Z,19.27
2018-12-16T21:54:11.817Z,18.00
2018-12-16T21:56:41.224Z,20.37
2018-12-16T21:59:10.369Z,24.53
2018-12-16T22:01:40.190Z,17.67
2018-12-16T22:04:09.250Z,19.10
2018-12-16T22:06:38.376Z,20.33
2018-12-16T22:09:08.474Z,21.93
2018-12-16T22:11:38.235Z,23.33
2018-12-16T22:14:07.962Z,27.07
2018-12-16T22:16:37.073Z,26.57
2018-12-16T22:19:06.127Z,23.40
2018-12-16T22:21:35.185Z,26.93
2018-12-16T22:24:04.515Z,26.40
2018-12-16T22:26:34.189Z,26.90
2018-12-16T22:29:03.275Z,25.70
2018-12-16T22:31:32.478Z,26.23
2018-12-16T22:34:02.123Z,22.57
2018-12-16T22:36:31.256Z,24.13
2018-12-16T22:39:00.314Z,23.13
2018-12-16T22:41:29.505Z,24.80
2018-12-16T22:43:58.671Z,22.03
2018-12-16T22:46:28.172Z,23.53
2018-12-16T22:48:57.344Z,24.70
2018-12-16T22:51:26.760Z,26.47
2018-12-16T22:53:56.278Z,24.20
2018-12-16T22:56:25.759Z,24.43
2018-12-16T22:58:54.964Z,22.33
2018-12-16T23:01:24.351Z,28.47
2018-12-16T23:03:53.446Z,28.23
2018-12-16T23:06:22.769Z,26.63
2018-12-16T23:08:51.827Z,28.03
2018-12-16T23:11:20.921Z,29.70
2018-12-16T23:13:49.995Z,29.83
2018-12-16T23:16:19.686Z,28.10
2018-12-16T23:18:48.902Z,29.67
2018-12-16T23:21:17.963Z,30.57
2018-12-16T23:23:47.132Z,29.07
2018-12-16T23:26:17.906Z,31.73
2018-12-16T23:28:47.166Z,27.50
2018-12-16T23:31:16.263Z,32.90
2018-12-16T23:33:45.633Z,29.30
2018-12-16T23:36:14.988Z,32.87
2018-12-16T23:38:44.118Z,31.63
2018-12-16T23:41:13.715Z,32.77
2018-12-16T23:43:43.876Z,35.70
2018-12-16T23:46:13.771Z,27.30
2018-12-16T23:48:43.152Z,25.07
2018-12-16T23:51:12.265Z,26.97
2018-12-16T23:53:41.738Z,31.40
2018-12-16T23:56:11.123Z,26.00
2018-12-16T23:58:40.307Z,24.57
